createdAt,value
2024-05-09T00:00:30.518Z,24.20
2024-05-09T00:01:23.668Z,19.60
2024-05-09T00:02:23.808Z,25.29
2024-05-09T00:03:23.598Z,24.20
2024-05-09T00:04:23.657Z,27.50
2024-05-09T00:05:23.643Z,26.60
2024-05-09T00:06:23.523Z,24.79
2024-05-09T00:07:23.510Z,29.70
2024-05-09T00:08:23.656Z,29.60
2024-05-09T00:09:23.486Z,34.40
2024-05-09T00:10:32.627Z,30.00
2024-05-09T00:11:23.629Z,27.50
2024-05-09T00:12:23.533Z,28.70
2024-05-09T00:13:23.470Z,31.70
2024-05-09T00:14:23.560Z,29.50
2024-05-09T00:15:23.458Z,28.10
2024-05-09T00:16:23.453Z,28.89
2024-05-09T00:17:23.611Z,28.70
2024-05-09T00:18:23.666Z,29.10
2024-05-09T00:19:23.522Z,29.39
2024-05-09T00:20:28.593Z,32.70
2024-05-09T00:21:24.409Z,27.39
2024-05-09T00:22:23.351Z,32.20
2024-05-09T00:23:23.361Z,32.29
2024-05-09T00:24:23.354Z,33.79
2024-05-09T00:25:23.320Z,32.40
2024-05-09T00:26:23.380Z,30.79
2024-05-09T00:27:23.320Z,31.20
2024-05-09T00:28:23.306Z,39.00
2024-05-09T00:29:23.380Z,34.09
2024-05-09T00:30:31.649Z,32.90
2024-05-09T00:31:24.329Z,31.50
2024-05-09T00:32:23.391Z,37.70
2024-05-09T00:33:23.409Z,35.40
2024-05-09T00:34:23.306Z,35.00
2024-05-09T00:35:23.518Z,36.29
2024-05-09T00:36:23.210Z,33.59
2024-05-09T00:37:23.221Z,30.29
2024-05-09T00:38:23.252Z,31.29
2024-05-09T00:39:23.179Z,28.79
2024-05-09T00:40:31.117Z,29.70
2024-05-09T00:41:24.268Z,31.29
2024-05-09T00:42:23.151Z,32.50
2024-05-09T00:43:23.172Z,35.79
2024-05-09T00:44:23.253Z,35.50
2024-05-09T00:45:23.126Z,34.09
2024-05-09T00:46:23.112Z,31.00
2024-05-09T00:47:23.249Z,34.00
2024-05-09T00:48:23.207Z,30.10
2024-05-09T00:49:23.213Z,35.50
2024-05-09T00:50:29.918Z,33.20
2024-05-09T00:51:24.127Z,30.50
2024-05-09T00:52:23.038Z,32.90
2024-05-09T00:53:23.064Z,27.60
2024-05-09T00:54:23.103Z,30.20
2024-05-09T00:55:23.024Z,25.50
2024-05-09T00:56:23.047Z,32.20
2024-05-09T00:57:22.987Z,27.39
2024-05-09T00:58:23.022Z,24.79
2024-05-09T00:59:23.093Z,22.50
2024-05-09T01:00:31.133Z,23.00
2024-05-09T01:01:24.045Z,24.39
2024-05-09T01:02:23.101Z,30.00
2024-05-09T01:03:23.235Z,28.70
2024-05-09T01:04:22.952Z,31.79
2024-05-09T01:05:23.086Z,26.60
2024-05-09T01:06:22.889Z,30.10
2024-05-09T01:07:22.897Z,27.29
2024-05-09T01:08:22.892Z,24.20
2024-05-09T01:09:22.902Z,33.70
2024-05-09T01:10:28.299Z,28.10
2024-05-09T01:11:24.015Z,27.00
2024-05-09T01:12:22.871Z,29.60
2024-05-09T01:13:22.818Z,28.60
2024-05-09T01:14:22.903Z,31.10
2024-05-09T01:15:22.830Z,26.39
2024-05-09T01:16:22.821Z,33.50
2024-05-09T01:17:22.974Z,27.89
2024-05-09T01:18:22.906Z,28.00
2024-05-09T01:19:22.877Z,28.70
2024-05-09T01:20:31.879Z,28.70
2024-05-09T01:21:23.892Z,29.89
2024-05-09T01:22:22.726Z,35.79
2024-05-09T01:23:22.766Z,26.89
2024-05-09T01:24:22.729Z,26.89
2024-05-09T01:25:22.713Z,31.70
2024-05-09T01:26:22.695Z,31.20
2024-05-09T01:27:22.691Z,36.20
2024-05-09T01:28:22.671Z,35.20
2024-05-09T01:29:22.755Z,29.00
2024-05-09T01:30:31.256Z,31.60
2024-05-09T01:31:23.664Z,43.29
2024-05-09T01:32:22.788Z,36.70
2024-05-09T01:33:22.792Z,42.50
2024-05-09T01:34:22.689Z,34.40
2024-05-09T01:35:22.701Z,37.00
2024-05-09T01:36:22.583Z,43.40
2024-05-09T01:37:22.576Z,40.40
2024-05-09T01:38:22.610Z,38.70
2024-05-09T01:39:22.566Z,43.70
2024-05-09T01:40:29.275Z,48.20
2024-05-09T01:41:23.676Z,45.90
2024-05-09T01:42:22.543Z,52.29
2024-05-09T01:43:22.543Z,49.00
2024-05-09T01:44:22.638Z,56.59
2024-05-09T01:45:22.496Z,64.59
2024-05-09T01:46:22.485Z,72.40
2024-05-09T01:47:22.792Z,67.69
2024-05-09T01:48:22.624Z,76.50
2024-05-09T01:49:22.539Z,74.19
2024-05-09T01:50:28.930Z,70.00
2024-05-09T01:51:23.571Z,57.50
2024-05-09T01:52:22.418Z,58.59
2024-05-09T01:53:22.486Z,47.70
2024-05-09T01:54:22.409Z,45.29
2024-05-09T01:55:22.395Z,39.59
2024-05-09T01:56:22.427Z,48.59
2024-05-09T01:57:22.412Z,53.29
2024-05-09T01:58:22.354Z,34.40
2024-05-09T01:59:22.481Z,42.09
2024-05-09T02:00:33.191Z,43.90
2024-05-09T02:01:23.406Z,45.20
2024-05-09T02:02:22.417Z,43.40
2024-05-09T02:03:22.495Z,41.29
2024-05-09T02:04:22.482Z,46.09
2024-05-09T02:05:22.400Z,36.29
2024-05-09T02:06:22.287Z,47.09
2024-05-09T02:07:22.264Z,45.90
2024-05-09T02:08:22.478Z,44.20
2024-05-09T02:09:22.248Z,51.00
2024-05-09T02:10:26.570Z,47.29
2024-05-09T02:11:22.300Z,55.90
2024-05-09T02:12:22.383Z,58.70
2024-05-09T02:13:22.216Z,73.00
2024-05-09T02:14:22.249Z,88.90
2024-05-09T02:15:22.207Z,102.69
2024-05-09T02:16:22.213Z,93.59
2024-05-09T02:17:22.587Z,97.30
2024-05-09T02:18:22.397Z,119.69
2024-05-09T02:19:22.503Z,120.09
2024-05-09T02:20:30.579Z,107.40
2024-05-09T02:21:23.152Z,70.00
2024-05-09T02:22:22.106Z,72.19
2024-05-09T02:23:22.266Z,66.50
2024-05-09T02:24:22.101Z,76.90
2024-05-09T02:25:22.066Z,66.30
2024-05-09T02:26:22.147Z,78.40
2024-05-09T02:27:22.057Z,63.20
2024-05-09T02:28:22.041Z,85.69
2024-05-09T02:29:22.072Z,67.50
2024-05-09T02:30:30.099Z,76.90
2024-05-09T02:31:22.026Z,81.40
2024-05-09T02:32:22.221Z,80.19
2024-05-09T02:33:22.360Z,108.00
2024-05-09T02:34:22.133Z,95.30
2024-05-09T02:35:22.012Z,91.90
2024-05-09T02:36:21.970Z,94.80
2024-05-09T02:37:21.953Z,107.19
2024-05-09T02:38:21.976Z,87.40
2024-05-09T02:39:21.925Z,96.80
2024-05-09T02:40:29.126Z,109.19
2024-05-09T02:41:23.025Z,95.09
2024-05-09T02:42:21.908Z,117.59
2024-05-09T02:43:21.904Z,103.69
2024-05-09T02:44:21.934Z,111.59
2024-05-09T02:45:21.879Z,110.09
2024-05-09T02:46:21.849Z,113.30
2024-05-09T02:47:22.088Z,125.19
2024-05-09T02:48:22.187Z,132.80
2024-05-09T02:49:22.064Z,124.09
2024-05-09T02:50:29.864Z,127.80
2024-05-09T02:51:22.861Z,116.90
2024-05-09T02:52:21.835Z,116.90
2024-05-09T02:53:21.875Z,110.50
2024-05-09T02:54:21.797Z,121.50
2024-05-09T02:55:21.776Z,104.69
2024-05-09T02:56:21.818Z,102.09
2024-05-09T02:57:21.794Z,109.59
2024-05-09T02:58:21.731Z,121.19
2024-05-09T02:59:21.935Z,106.90
2024-05-09T03:00:26.504Z,121.69
2024-05-09T03:01:22.802Z,100.09
2024-05-09T03:02:21.819Z,125.90
2024-05-09T03:03:22.001Z,119.80
2024-05-09T03:04:21.879Z,123.90
2024-05-09T03:05:21.753Z,160.30
2024-05-09T03:06:21.658Z,153.80
2024-05-09T03:07:21.638Z,161.30
2024-05-09T03:08:21.749Z,148.80
2024-05-09T03:09:21.628Z,142.60
2024-05-09T03:10:25.673Z,157.39
2024-05-09T03:11:22.857Z,178.00
2024-05-09T03:12:21.649Z,212.30
2024-05-09T03:13:21.591Z,169.10
2024-05-09T03:14:21.713Z,170.19
2024-05-09T03:15:21.570Z,187.89
2024-05-09T03:16:21.548Z,187.69
2024-05-09T03:17:21.681Z,191.80
2024-05-09T03:18:21.617Z,184.50
2024-05-09T03:19:21.833Z,202.10
2024-05-09T03:20:27.330Z,220.69
2024-05-09T03:21:22.530Z,196.10
2024-05-09T03:22:21.432Z,198.60
2024-05-09T03:23:21.521Z,191.80
2024-05-09T03:24:21.478Z,197.30
2024-05-09T03:25:21.415Z,212.30
2024-05-09T03:26:21.451Z,220.00
2024-05-09T03:27:21.420Z,232.10
2024-05-09T03:28:21.425Z,225.60
2024-05-09T03:29:21.502Z,236.19
2024-05-09T03:30:29.639Z,259.70
2024-05-09T03:31:22.371Z,225.50
2024-05-09T03:32:21.587Z,235.89
2024-05-09T03:33:21.989Z,202.30
2024-05-09T03:34:21.395Z,241.80
2024-05-09T03:35:21.407Z,185.10
2024-05-09T03:36:21.314Z,224.89
2024-05-09T03:37:21.275Z,207.89
2024-05-09T03:38:21.409Z,213.89
2024-05-09T03:39:21.302Z,201.50
2024-05-09T03:40:26.330Z,203.10
2024-05-09T03:41:22.355Z,227.00
2024-05-09T03:42:21.251Z,225.89
2024-05-09T03:43:21.266Z,198.50
2024-05-09T03:44:21.366Z,214.69
2024-05-09T03:45:21.182Z,205.80
2024-05-09T03:46:21.253Z,189.80
2024-05-09T03:47:21.471Z,188.69
2024-05-09T03:48:21.507Z,205.69
2024-05-09T03:49:21.396Z,191.80
2024-05-09T03:50:26.465Z,214.60
2024-05-09T03:51:22.161Z,194.30
2024-05-09T03:52:21.124Z,210.39
2024-05-09T03:53:21.176Z,177.80
2024-05-09T03:54:21.128Z,181.80
2024-05-09T03:55:21.117Z,204.00
2024-05-09T03:56:21.164Z,199.60
2024-05-09T03:57:21.113Z,203.19
2024-05-09T03:58:21.062Z,216.19
2024-05-09T03:59:21.057Z,197.00
2024-05-09T04:00:30.546Z,202.10
2024-05-09T04:01:22.093Z,212.39
2024-05-09T04:02:21.137Z,240.89
2024-05-09T04:03:21.197Z,233.69
2024-05-09T04:04:21.097Z,232.89
2024-05-09T04:05:21.202Z,240.19
2024-05-09T04:06:20.969Z,240.69
2024-05-09T04:07:20.982Z,253.50
2024-05-09T04:08:20.978Z,247.69
2024-05-09T04:09:20.969Z,245.60
2024-05-09T04:10:27.885Z,251.89
2024-05-09T04:11:22.117Z,261.29
2024-05-09T04:12:20.954Z,267.60
2024-05-09T04:13:20.899Z,283.50
2024-05-09T04:14:20.950Z,300.29
2024-05-09T04:15:20.881Z,283.89
2024-05-09T04:16:20.874Z,290.10
2024-05-09T04:17:20.887Z,300.39
2024-05-09T04:18:20.937Z,300.79
2024-05-09T04:19:20.926Z,291.20
2024-05-09T04:20:29.535Z,322.20
2024-05-09T04:21:21.911Z,296.60
2024-05-09T04:22:20.803Z,290.29
2024-05-09T04:23:20.972Z,279.00
2024-05-09T04:24:20.786Z,204.00
2024-05-09T04:25:20.770Z,182.00
2024-05-09T04:26:20.821Z,183.80
2024-05-09T04:27:20.773Z,204.39
2024-05-09T04:28:20.768Z,162.30
2024-05-09T04:29:20.856Z,183.80
2024-05-09T04:30:26.509Z,173.69
2024-05-09T04:31:21.769Z,190.69
2024-05-09T04:32:20.807Z,180.39
2024-05-09T04:33:21.023Z,157.30
2024-05-09T04:34:20.790Z,168.00
2024-05-09T04:35:20.761Z,197.69
2024-05-09T04:36:20.666Z,193.19
2024-05-09T04:37:20.670Z,165.60
2024-05-09T04:38:20.738Z,180.50
2024-05-09T04:39:20.630Z,170.00
2024-05-09T04:40:28.210Z,188.60
2024-05-09T04:41:20.676Z,203.19
2024-05-09T04:42:20.602Z,180.30
2024-05-09T04:43:20.650Z,190.00
2024-05-09T04:44:20.627Z,193.69
2024-05-09T04:45:20.564Z,196.89
2024-05-09T04:46:20.558Z,215.00
2024-05-09T04:47:20.665Z,198.19
2024-05-09T04:48:20.658Z,251.30
2024-05-09T04:49:20.629Z,239.89
2024-05-09T04:50:29.379Z,215.60
2024-05-09T04:51:21.570Z,259.89
2024-05-09T04:52:20.505Z,249.39
2024-05-09T04:53:20.548Z,234.39
2024-05-09T04:55:20.471Z,233.89
2024-05-09T04:56:20.480Z,246.10
2024-05-09T04:57:20.443Z,257.79
2024-05-09T04:58:20.420Z,243.69
2024-05-09T04:59:20.457Z,235.69
2024-05-09T05:00:28.592Z,277.20
2024-05-09T05:01:21.506Z,235.30
2024-05-09T05:02:20.421Z,246.60
2024-05-09T05:03:20.529Z,264.79
2024-05-09T05:04:20.498Z,236.39
2024-05-09T05:05:20.432Z,246.69
2024-05-09T05:06:20.377Z,230.80
2024-05-09T05:07:20.349Z,238.30
2024-05-09T05:08:20.411Z,214.00
2024-05-09T05:09:20.395Z,237.89
2024-05-09T05:10:25.505Z,212.60
2024-05-09T05:11:21.430Z,220.50
2024-05-09T05:12:20.359Z,198.00
2024-05-09T05:13:21.576Z,196.19
2024-05-09T05:14:20.291Z,192.10
2024-05-09T05:15:20.256Z,171.19
2024-05-09T05:16:20.244Z,206.39
2024-05-09T05:17:20.404Z,162.50
2024-05-09T05:18:20.438Z,191.69
2024-05-09T05:19:20.346Z,182.50
2024-05-09T05:20:27.436Z,165.89
2024-05-09T05:21:21.425Z,176.39
2024-05-09T05:22:20.190Z,156.00
2024-05-09T05:23:20.414Z,179.30
2024-05-09T05:24:20.174Z,177.00
2024-05-09T05:25:20.176Z,179.69
2024-05-09T05:26:20.259Z,172.00
2024-05-09T05:27:20.146Z,178.30
2024-05-09T05:28:20.165Z,163.60
2024-05-09T05:29:20.903Z,121.30
2024-05-09T05:30:25.232Z,135.39
2024-05-09T05:31:21.139Z,133.50
2024-05-09T05:32:20.306Z,130.69
2024-05-09T05:33:20.603Z,132.19
2024-05-09T05:34:20.069Z,112.30
2024-05-09T05:35:20.099Z,111.09
2024-05-09T05:36:20.037Z,120.59
2024-05-09T05:37:20.027Z,115.19
2024-05-09T05:38:21.925Z,109.59
2024-05-09T05:39:20.002Z,101.80
2024-05-09T05:40:28.175Z,110.80
2024-05-09T05:41:20.076Z,100.59
2024-05-09T05:42:19.966Z,95.09
2024-05-09T05:43:19.965Z,93.19
2024-05-09T05:44:19.965Z,82.50
2024-05-09T05:45:19.938Z,85.90
2024-05-09T05:46:19.925Z,83.40
2024-05-09T05:47:20.097Z,85.09
2024-05-09T05:48:20.063Z,78.69
2024-05-09T05:49:20.171Z,75.80
2024-05-09T05:50:27.429Z,74.50
2024-05-09T05:51:20.997Z,71.69
2024-05-09T05:52:19.874Z,73.80
2024-05-09T05:53:19.927Z,67.09
2024-05-09T05:54:19.856Z,62.00
2024-05-09T05:55:19.837Z,56.20
2024-05-09T05:56:19.953Z,64.59
2024-05-09T05:57:19.847Z,61.40
2024-05-09T05:58:19.801Z,53.20
2024-05-09T05:59:19.818Z,49.40
2024-05-09T06:00:29.237Z,39.79
2024-05-09T06:01:20.898Z,37.09
2024-05-09T06:02:19.835Z,33.59
2024-05-09T06:03:19.800Z,31.10
2024-05-09T06:04:19.818Z,30.70
2024-05-09T06:05:19.760Z,28.29
2024-05-09T06:06:19.716Z,26.50
2024-05-09T06:07:19.702Z,29.89
2024-05-09T06:08:19.720Z,35.29
2024-05-09T06:09:19.691Z,27.20
2024-05-09T06:10:25.444Z,30.29
2024-05-09T06:11:19.782Z,31.89
2024-05-09T06:12:19.766Z,29.39
2024-05-09T06:13:19.659Z,27.29
2024-05-09T06:14:19.644Z,27.50
2024-05-09T06:15:19.629Z,32.20
2024-05-09T06:16:19.608Z,30.39
2024-05-09T06:17:19.749Z,26.89
2024-05-09T06:18:19.956Z,25.20
2024-05-09T06:19:19.779Z,30.89
2024-05-09T06:20:24.071Z,30.10
2024-05-09T06:21:20.769Z,25.50
2024-05-09T06:22:19.548Z,25.39
2024-05-09T06:23:19.579Z,27.50
2024-05-09T06:24:19.533Z,26.29
2024-05-09T06:25:19.556Z,25.39
2024-05-09T06:26:19.541Z,27.60
2024-05-09T06:27:19.506Z,27.00
2024-05-09T06:28:19.496Z,25.20
2024-05-09T06:29:19.583Z,28.10
2024-05-09T06:30:26.192Z,25.60
2024-05-09T06:31:20.490Z,25.20
2024-05-09T06:32:19.631Z,26.60
2024-05-09T06:33:19.673Z,24.60
2024-05-09T06:34:19.683Z,23.60
2024-05-09T06:35:19.466Z,27.70
2024-05-09T06:36:19.408Z,25.00
2024-05-09T06:37:19.416Z,24.89
2024-05-09T06:38:19.475Z,24.39
2024-05-09T06:39:19.379Z,25.79
2024-05-09T06:40:25.611Z,25.00
2024-05-09T06:41:20.429Z,26.50
2024-05-09T06:42:19.366Z,24.89
2024-05-09T06:43:20.005Z,22.10
2024-05-09T06:44:19.373Z,25.29
2024-05-09T06:45:19.320Z,24.79
2024-05-09T06:46:19.294Z,24.20
2024-05-09T06:47:19.373Z,24.29
2024-05-09T06:48:20.056Z,22.50
2024-05-09T06:49:19.442Z,19.60
2024-05-09T06:50:24.008Z,21.70
2024-05-09T06:51:20.312Z,25.10
2024-05-09T06:52:19.259Z,22.70
2024-05-09T06:53:19.294Z,27.39
2024-05-09T06:54:19.227Z,23.29
2024-05-09T06:55:19.205Z,21.50
2024-05-09T06:56:19.248Z,22.20
2024-05-09T06:57:19.186Z,20.79
2024-05-09T06:58:19.170Z,20.79
2024-05-09T06:59:19.240Z,24.10
2024-05-09T07:00:27.411Z,22.00
2024-05-09T07:01:20.270Z,22.39
2024-05-09T07:02:19.242Z,21.89
2024-05-09T07:03:19.808Z,23.89
2024-05-09T07:04:19.159Z,24.50
2024-05-09T07:05:19.165Z,22.89
2024-05-09T07:06:19.087Z,19.20
2024-05-09T07:07:19.076Z,20.20
2024-05-09T07:08:19.498Z,21.89
2024-05-09T07:09:19.056Z,23.00
2024-05-09T07:10:25.644Z,19.29
2024-05-09T07:11:19.122Z,20.29
2024-05-09T07:12:19.212Z,20.50
2024-05-09T07:13:19.013Z,21.39
2024-05-09T07:14:19.057Z,23.89
2024-05-09T07:15:18.990Z,18.60
2024-05-09T07:16:18.988Z,19.70
2024-05-09T07:17:19.110Z,20.60
2024-05-09T07:18:19.870Z,20.20
2024-05-09T07:19:19.220Z,21.00
2024-05-09T07:20:23.544Z,19.20
2024-05-09T07:21:19.980Z,19.00
2024-05-09T07:22:18.915Z,20.20
2024-05-09T07:23:19.227Z,20.00
2024-05-09T07:24:18.907Z,20.39
2024-05-09T07:25:18.885Z,19.00
2024-05-09T07:26:19.007Z,17.39
2024-05-09T07:27:18.869Z,21.39
2024-05-09T07:28:19.091Z,16.89
2024-05-09T07:29:18.930Z,19.29
2024-05-09T07:30:26.951Z,16.39
2024-05-09T07:31:19.850Z,19.50
2024-05-09T07:32:19.135Z,18.70
2024-05-09T07:33:19.884Z,19.89
2024-05-09T07:34:19.266Z,16.70
2024-05-09T07:35:18.809Z,17.20
2024-05-09T07:36:18.781Z,19.79
2024-05-09T07:37:18.772Z,18.50
2024-05-09T07:38:18.998Z,17.39
2024-05-09T07:39:18.755Z,18.79
2024-05-09T07:40:28.527Z,18.89
2024-05-09T07:41:19.822Z,18.79
2024-05-09T07:42:18.708Z,21.70
2024-05-09T07:43:18.707Z,20.29
2024-05-09T07:44:18.747Z,17.20
2024-05-09T07:45:40.232Z,21.00
2024-05-09T07:48:29.039Z,17.29
2024-05-09T07:53:38.239Z,18.20
2024-05-09T07:54:18.808Z,18.29
2024-05-09T07:55:18.934Z,16.20
2024-05-09T07:56:19.748Z,19.60
2024-05-09T07:57:18.696Z,15.30
2024-05-09T07:58:18.616Z,15.30
2024-05-09T07:59:18.529Z,15.10
2024-05-09T08:00:23.723Z,14.60
2024-05-09T08:01:19.930Z,16.89
2024-05-09T08:02:18.635Z,15.80
2024-05-09T08:03:18.648Z,15.00
2024-05-09T08:04:18.569Z,17.20
2024-05-09T08:05:18.545Z,13.69
2024-05-09T08:06:18.463Z,15.80
2024-05-09T08:07:18.488Z,16.20
2024-05-09T08:08:18.432Z,15.39
2024-05-09T08:09:21.148Z,15.50
2024-05-09T08:10:22.238Z,13.69
2024-05-09T08:11:19.520Z,17.29
2024-05-09T08:12:18.408Z,13.69
2024-05-09T08:13:18.453Z,18.00
2024-05-09T08:14:18.372Z,14.50
2024-05-09T08:15:18.360Z,13.39
2024-05-09T08:16:18.362Z,15.30
2024-05-09T08:17:18.442Z,16.89
2024-05-09T08:18:18.432Z,14.89
2024-05-09T08:19:18.364Z,14.89
2024-05-09T08:20:26.845Z,15.80
2024-05-09T08:21:19.387Z,14.50
2024-05-09T08:22:18.321Z,12.39
2024-05-09T08:23:18.293Z,15.60
2024-05-09T08:24:18.267Z,12.89
2024-05-09T08:25:18.405Z,13.19
2024-05-09T08:26:18.260Z,14.10
2024-05-09T08:27:18.252Z,12.19
2024-05-09T08:28:18.313Z,14.69
2024-05-09T08:29:18.211Z,15.10
2024-05-09T08:30:24.782Z,14.39
2024-05-09T08:31:19.364Z,12.89
2024-05-09T08:32:18.224Z,13.00
2024-05-09T08:33:18.345Z,16.00
2024-05-09T08:34:18.372Z,15.10
2024-05-09T08:35:18.160Z,12.89
2024-05-09T08:36:18.147Z,13.19
2024-05-09T08:37:22.482Z,11.39
2024-05-09T08:38:19.150Z,12.80
2024-05-09T08:39:18.119Z,12.50
2024-05-09T08:40:24.104Z,11.80
2024-05-09T08:41:19.130Z,13.69
2024-05-09T08:42:18.149Z,13.50
2024-05-09T08:43:18.082Z,12.39
2024-05-09T08:44:18.072Z,11.10
2024-05-09T08:45:18.054Z,12.19
2024-05-09T08:46:18.047Z,11.39
2024-05-09T08:47:18.081Z,12.80
2024-05-09T08:48:18.297Z,12.80
2024-05-09T08:49:18.113Z,11.89
2024-05-09T08:50:28.794Z,12.69
2024-05-09T08:51:19.018Z,11.89
2024-05-09T08:52:18.035Z,14.60
2024-05-09T08:53:18.005Z,12.19
2024-05-09T08:54:17.959Z,13.50
2024-05-09T08:55:17.955Z,12.39
2024-05-09T08:56:17.933Z,12.60
2024-05-09T08:57:17.932Z,14.10
2024-05-09T08:58:17.987Z,13.39
2024-05-09T08:59:17.902Z,11.10
2024-05-09T09:00:25.828Z,15.19
2024-05-09T09:01:19.004Z,11.10
2024-05-09T09:02:18.115Z,12.30
2024-05-09T09:03:18.041Z,14.10
2024-05-09T09:04:17.981Z,14.30
2024-05-09T09:05:18.085Z,11.00
2024-05-09T09:06:17.832Z,10.30
2024-05-09T09:07:17.853Z,10.69
2024-05-09T09:08:17.816Z,12.89
2024-05-09T09:09:17.819Z,10.89
2024-05-09T09:10:25.125Z,12.69
2024-05-09T09:11:18.841Z,11.80
2024-05-09T09:12:17.770Z,10.30
2024-05-09T09:13:17.834Z,11.89
2024-05-09T09:14:17.759Z,11.30
2024-05-09T09:15:17.745Z,11.69
2024-05-09T09:16:17.848Z,11.50
2024-05-09T09:17:17.760Z,11.39
2024-05-09T09:18:18.302Z,11.19
2024-05-09T09:19:17.892Z,10.80
2024-05-09T09:20:25.937Z,10.80
2024-05-09T09:21:18.714Z,11.30
2024-05-09T09:22:17.698Z,13.69
2024-05-09T09:23:17.658Z,11.00
2024-05-09T09:24:17.656Z,9.89
2024-05-09T09:25:17.679Z,10.60
2024-05-09T09:26:17.631Z,10.60
2024-05-09T09:27:17.621Z,10.89
2024-05-09T09:28:17.774Z,11.60
2024-05-09T09:29:17.600Z,11.89
2024-05-09T09:30:31.407Z,10.10
2024-05-09T09:31:18.693Z,11.89
2024-05-09T09:32:17.601Z,9.69
2024-05-09T09:33:17.732Z,10.19
2024-05-09T09:34:17.809Z,9.89
2024-05-09T09:35:17.547Z,7.30
2024-05-09T09:36:17.542Z,9.60
2024-05-09T09:37:17.596Z,10.60
2024-05-09T09:38:17.505Z,10.19
2024-05-09T09:39:17.490Z,9.30
2024-05-09T09:40:18.452Z,11.10
2024-05-09T09:41:17.495Z,9.30
2024-05-09T09:42:17.471Z,7.30
2024-05-09T09:43:17.538Z,9.50
2024-05-09T09:44:17.482Z,9.39
2024-05-09T09:45:17.460Z,11.80
2024-05-09T09:46:17.442Z,9.60
2024-05-09T09:47:17.484Z,10.19
2024-05-09T09:48:17.519Z,7.09
2024-05-09T09:49:17.519Z,9.89
2024-05-09T09:50:23.889Z,10.39
2024-05-09T09:51:18.429Z,9.80
2024-05-09T09:52:17.410Z,9.19
2024-05-09T09:53:17.360Z,9.10
2024-05-09T09:54:17.343Z,7.80
2024-05-09T09:55:17.391Z,7.90
2024-05-09T09:56:17.318Z,9.39
2024-05-09T09:57:17.337Z,6.90
2024-05-09T09:58:17.570Z,6.69
2024-05-09T09:59:17.294Z,8.80
2024-05-09T10:00:23.988Z,8.19
2024-05-09T10:01:18.336Z,7.40
2024-05-09T10:02:17.462Z,7.50
2024-05-09T10:03:17.352Z,7.00
2024-05-09T10:04:17.400Z,6.40
2024-05-09T10:05:17.305Z,7.19
2024-05-09T10:06:17.217Z,6.50
2024-05-09T10:07:17.282Z,6.19
2024-05-09T10:08:17.204Z,6.40
2024-05-09T10:09:17.191Z,7.40
2024-05-09T10:10:22.967Z,7.19
2024-05-09T10:11:18.267Z,6.00
2024-05-09T10:12:17.182Z,5.90
2024-05-09T10:13:17.219Z,4.90
2024-05-09T10:14:17.151Z,5.59
2024-05-09T10:15:17.122Z,5.90
2024-05-09T10:16:17.172Z,8.80
2024-05-09T10:17:17.129Z,6.30
2024-05-09T10:18:17.318Z,4.80
2024-05-09T10:19:17.154Z,5.59
2024-05-09T10:20:21.942Z,5.30
2024-05-09T10:21:18.116Z,6.09
2024-05-09T10:22:17.161Z,5.09
2024-05-09T10:23:17.040Z,6.50
2024-05-09T10:24:17.053Z,7.09
2024-05-09T10:25:17.187Z,7.59
2024-05-09T10:26:17.012Z,5.40
2024-05-09T10:27:17.000Z,6.19
2024-05-09T10:28:17.066Z,6.80
2024-05-09T10:29:17.077Z,6.50
2024-05-09T10:30:25.790Z,7.19
2024-05-09T10:31:18.049Z,6.09
2024-05-09T10:32:16.986Z,5.59
2024-05-09T10:33:17.031Z,5.19
2024-05-09T10:34:17.064Z,5.30
2024-05-09T10:35:16.917Z,5.69
2024-05-09T10:36:16.901Z,5.59
2024-05-09T10:37:17.036Z,5.50
2024-05-09T10:38:16.901Z,5.90
2024-05-09T10:39:16.873Z,5.90
2024-05-09T10:40:23.481Z,5.40
2024-05-09T10:41:17.887Z,4.50
2024-05-09T10:42:16.853Z,5.00
2024-05-09T10:43:16.970Z,6.40
2024-05-09T10:44:16.823Z,4.19
2024-05-09T10:45:16.844Z,4.50
2024-05-09T10:46:17.113Z,4.90
2024-05-09T10:47:16.823Z,4.30
2024-05-09T10:48:16.919Z,4.50
2024-05-09T10:49:16.930Z,4.50
2024-05-09T10:50:22.649Z,4.30
2024-05-09T10:51:17.808Z,5.80
2024-05-09T10:52:16.803Z,6.59
2024-05-09T10:53:16.730Z,4.40
2024-05-09T10:54:16.725Z,5.30
2024-05-09T10:55:16.771Z,5.80
2024-05-09T10:56:17.251Z,4.69
2024-05-09T10:57:16.684Z,3.90
2024-05-09T10:58:16.759Z,5.09
2024-05-09T10:59:16.662Z,5.90
2024-05-09T11:00:27.004Z,5.59
2024-05-09T11:01:17.750Z,4.19
2024-05-09T11:02:16.816Z,4.40
2024-05-09T11:03:16.713Z,5.00
2024-05-09T11:04:16.977Z,4.50
2024-05-09T11:05:16.843Z,5.30
2024-05-09T11:06:16.624Z,5.50
2024-05-09T11:07:16.623Z,7.00
2024-05-09T11:08:16.613Z,4.19
2024-05-09T11:09:16.587Z,8.19
2024-05-09T11:10:24.389Z,5.00
2024-05-09T11:11:17.617Z,4.90
2024-05-09T11:12:16.574Z,5.40
2024-05-09T11:13:16.587Z,3.70
2024-05-09T11:14:16.519Z,5.00
2024-05-09T11:15:16.526Z,3.79
2024-05-09T11:16:16.976Z,5.69
2024-05-09T11:17:16.527Z,6.30
2024-05-09T11:18:16.735Z,5.09
2024-05-09T11:19:16.645Z,2.59
2024-05-09T11:20:22.958Z,3.70
2024-05-09T11:21:17.470Z,5.59
2024-05-09T11:22:16.565Z,4.19
2024-05-09T11:23:16.429Z,3.50
2024-05-09T11:24:16.410Z,3.09
2024-05-09T11:25:16.451Z,3.09
2024-05-09T11:26:16.390Z,3.40
2024-05-09T11:27:16.380Z,4.50
2024-05-09T11:28:16.470Z,4.90
2024-05-09T11:29:19.272Z,4.50
2024-05-09T11:30:23.783Z,3.09
2024-05-09T11:31:17.650Z,4.69
2024-05-09T11:32:16.506Z,3.50
2024-05-09T11:33:16.389Z,4.50
2024-05-09T11:34:16.450Z,5.19
2024-05-09T11:35:16.353Z,3.00
2024-05-09T11:36:16.294Z,4.69
2024-05-09T11:37:16.508Z,6.40
2024-05-09T11:38:16.320Z,4.09
2024-05-09T11:39:16.262Z,3.40
2024-05-09T11:40:21.547Z,5.59
2024-05-09T11:41:17.302Z,3.70
2024-05-09T11:42:16.364Z,3.00
2024-05-09T11:43:16.364Z,2.59
2024-05-09T11:44:16.215Z,3.00
2024-05-09T11:45:16.360Z,4.09
2024-05-09T11:46:16.279Z,3.50
2024-05-09T11:47:16.255Z,3.40
2024-05-09T11:48:16.434Z,4.90
2024-05-09T11:49:16.263Z,4.80
2024-05-09T11:50:26.398Z,3.79
2024-05-09T11:51:17.163Z,3.20
2024-05-09T11:52:16.220Z,3.20
2024-05-09T11:53:16.121Z,3.70
2024-05-09T11:54:16.104Z,3.50
2024-05-09T11:55:16.179Z,2.40
2024-05-09T11:56:16.083Z,4.30
2024-05-09T11:57:16.072Z,3.50
2024-05-09T11:58:16.145Z,5.09
2024-05-09T11:59:16.054Z,3.59
2024-05-09T12:00:24.525Z,3.79
2024-05-09T12:01:16.094Z,3.09
2024-05-09T12:02:16.174Z,3.09
2024-05-09T12:03:16.062Z,6.30
2024-05-09T12:04:16.203Z,4.30
2024-05-09T12:05:16.187Z,3.50
2024-05-09T12:06:16.031Z,2.90
2024-05-09T12:07:16.060Z,3.50
2024-05-09T12:08:15.960Z,3.20
2024-05-09T12:09:15.957Z,4.50
2024-05-09T12:10:19.830Z,4.00
2024-05-09T12:11:17.071Z,3.70
2024-05-09T12:12:15.922Z,3.59
2024-05-09T12:13:15.943Z,2.90
2024-05-09T12:14:15.899Z,3.40
2024-05-09T12:15:15.969Z,3.40
2024-05-09T12:16:15.950Z,4.09
2024-05-09T12:17:15.900Z,2.50
2024-05-09T12:18:15.897Z,6.00
2024-05-09T12:19:15.956Z,2.50
2024-05-09T12:20:21.557Z,3.90
2024-05-09T12:21:16.907Z,5.30
2024-05-09T12:22:15.954Z,2.29
2024-05-09T12:23:15.813Z,3.59
2024-05-09T12:24:18.478Z,3.70
2024-05-09T12:25:15.977Z,6.40
2024-05-09T12:26:15.831Z,12.19
2024-05-09T12:27:15.779Z,2.29
2024-05-09T12:28:15.929Z,4.69
2024-05-09T12:29:15.762Z,4.30
2024-05-09T12:30:20.945Z,2.20
2024-05-09T12:31:15.779Z,4.00
2024-05-09T12:32:15.793Z,2.59
2024-05-09T12:33:15.899Z,9.89
2024-05-09T12:34:15.825Z,2.09
2024-05-09T12:35:15.770Z,3.09
2024-05-09T12:36:15.707Z,2.20
2024-05-09T12:37:15.801Z,3.40
2024-05-09T12:38:15.746Z,4.09
2024-05-09T12:39:15.688Z,10.39
2024-05-09T12:40:22.997Z,3.00
2024-05-09T12:41:16.689Z,3.09
2024-05-09T12:42:26.414Z,3.40
2024-05-09T12:43:16.739Z,18.20
2024-05-09T12:44:15.627Z,2.79
2024-05-09T12:45:15.653Z,6.00
2024-05-09T12:46:15.658Z,14.69
2024-05-09T12:47:15.674Z,5.30
2024-05-09T12:48:15.723Z,3.00
2024-05-09T12:49:17.334Z,20.70
2024-05-09T12:50:22.430Z,31.70
2024-05-09T12:51:16.587Z,1.60
2024-05-09T12:52:15.572Z,11.19
2024-05-09T12:53:15.554Z,2.90
2024-05-09T12:54:15.531Z,23.29
2024-05-09T12:55:15.667Z,2.70
2024-05-09T12:56:15.509Z,3.29
2024-05-09T12:57:15.501Z,2.79
2024-05-09T12:58:15.644Z,2.59
2024-05-09T12:59:15.494Z,3.40